Time;durP1;ratioP1;P1;durP2;ratioP2;P2;SDS_P1;SDS_P2;PMS_P1;PMS_P2;Temp;Humidity;BMP_temperature;BMP_pressure;BME280_temperature;BME280_humidity;BME280_pressure;Samples;Min_cycle;Max_cycle;Signal;HPM_P1;HPM_P2
2023/09/27 00:00:42;;;;;;;3.00;2.33;;;;;13.00;94641.00;;;;7394154;19;20161;-76
2023/09/27 00:03:16;;;;;;;3.58;2.65;;;;;13.20;94641.00;;;;7394258;19;20140;-76
2023/09/27 00:05:45;;;;;;;3.78;2.70;;;;;13.30;94634.00;;;;7396663;19;20148;-76
2023/09/27 00:08:26;;;;;;;3.63;2.60;;;;;13.20;94637.00;;;;7393398;19;20494;-76
2023/09/27 00:10:54;;;;;;;2.40;2.20;;;;;13.30;94626.00;;;;7396444;19;20878;-77
2023/09/27 00:13:29;;;;;;;2.88;2.50;;;;;13.30;94623.00;;;;7398148;19;20144;-75
2023/09/27 00:15:57;;;;;;;2.60;2.40;;;;;13.20;94617.00;;;;7402231;19;20219;-76
2023/09/27 00:18:33;;;;;;;4.43;2.80;;;;;13.20;94622.00;;;;7402446;19;20128;-76
2023/09/27 00:21:03;;;;;;;4.20;2.05;;;;;13.30;94633.00;;;;7405567;19;20448;-79
2023/09/27 00:23:30;;;;;;;3.53;2.70;;;;;13.20;94629.00;;;;7402698;19;20160;-79
2023/09/27 00:26:05;;;;;;;3.15;2.42;;;;;13.20;94637.00;;;;7403149;19;20144;-78
2023/09/27 00:28:33;;;;;;;2.45;2.13;;;;;13.10;94632.00;;;;7402556;19;20148;-79
2023/09/27 00:31:04;;;;;;;4.82;2.40;;;;;13.10;94629.00;;;;7401213;19;20136;-79
2023/09/27 00:33:38;;;;;;;2.55;2.30;;;;;13.00;94634.00;;;;7401062;19;20200;-76
2023/09/27 00:36:06;;;;;;;5.68;2.45;;;;;13.10;94620.00;;;;7402472;19;20219;-76
2023/09/27 00:38:40;;;;;;;3.03;2.33;;;;;13.10;94621.00;;;;7398713;19;20622;-78
2023/09/27 00:41:08;;;;;;;5.55;2.60;;;;;13.00;94631.00;;;;7402679;19;20204;-76
2023/09/27 00:43:43;;;;;;;3.05;2.33;;;;;12.90;94623.00;;;;7403366;19;20146;-76
2023/09/27 00:46:15;;;;;;;2.75;2.45;;;;;12.80;94625.00;;;;7401402;19;20133;-77
2023/09/27 00:48:54;;;;;;;2.63;2.40;;;;;12.80;94631.00;;;;7400383;19;20684;-77
2023/09/27 00:51:21;;;;;;;2.85;2.55;;;;;12.60;94624.00;;;;7402053;19;20137;-77
2023/09/27 00:53:58;;;;;;;2.45;2.25;;;;;12.60;94635.00;;;;7402461;19;20658;-77
2023/09/27 00:56:33;;;;;;;3.13;2.60;;;;;12.70;94636.00;;;;7400842;19;20525;-77
2023/09/27 00:59:08;;;;;;;3.97;3.00;;;;;13.00;94631.00;;;;7402949;19;20582;-76
2023/09/27 01:01:56;;;;;;;7.20;3.15;;;;;13.10;94635.00;;;;7400425;19;20124;-77
2023/09/27 01:04:32;;;;;;;4.22;2.53;;;;;13.20;94628.00;;;;7396903;19;20133;-79
2023/09/27 01:07:00;;;;;;;3.15;2.63;;;;;13.20;94627.00;;;;7399485;19;20526;-77
2023/09/27 01:09:35;;;;;;;7.10;2.88;;;;;13.40;94640.00;;;;7402315;19;20133;-77
2023/09/27 01:12:04;;;;;;;3.20;2.20;;;;;13.50;94631.00;;;;7400369;19;20152;-79
2023/09/27 01:14:39;;;;;;;4.05;2.70;;;;;13.80;94629.00;;;;7399485;19;20515;-77
2023/09/27 01:17:10;;;;;;;3.47;2.90;;;;;14.10;94623.00;;;;7400988;19;20121;-77
2023/09/27 01:19:45;;;;;;;4.22;2.70;;;;;14.00;94623.00;;;;7399888;19;20620;-78
2023/09/27 01:22:14;;;;;;;2.63;2.38;;;;;13.70;94615.00;;;;7400154;19;20471;-79
2023/09/27 01:24:51;;;;;;;3.10;2.70;;;;;13.60;94626.00;;;;7400587;19;20184;-77
2023/09/27 01:27:20;;;;;;;2.30;2.10;;;;;14.00;94624.00;;;;7401176;19;20587;-78
2023/09/27 01:29:55;;;;;;;3.97;2.42;;;;;14.20;94625.00;;;;7398586;19;20146;-78
2023/09/27 01:32:30;;;;;;;5.28;2.90;;;;;14.30;94627.00;;;;7399404;19;20654;-78
2023/09/27 01:35:06;;;;;;;4.32;2.22;;;;;14.40;94628.00;;;;7400906;19;20203;-77
2023/09/27 01:37:34;;;;;;;4.18;2.40;;;;;14.50;94624.00;;;;7397943;19;20601;-79
2023/09/27 01:40:16;;;;;;;2.70;2.20;;;;;14.40;94611.00;;;;7401189;19;20136;-77
2023/09/27 01:42:50;;;;;;;4.45;2.20;;;;;14.00;94617.00;;;;7401901;19;20129;-79
2023/09/27 01:45:26;;;;;;;3.08;1.83;;;;;14.00;94625.00;;;;7399166;19;20148;-78
2023/09/27 01:47:54;;;;;;;3.53;2.25;;;;;13.90;94628.00;;;;7398218;19;20164;-80
2023/09/27 01:50:30;;;;;;;4.20;2.35;;;;;14.10;94630.00;;;;7399038;19;20139;-78
2023/09/27 01:52:58;;;;;;;3.63;1.90;;;;;14.50;94637.00;;;;7399766;19;20153;-80
2023/09/27 01:55:32;;;;;;;2.67;1.88;;;;;14.80;94626.00;;;;7398553;19;20128;-76
2023/09/27 01:58:02;;;;;;;5.05;2.40;;;;;14.90;94625.00;;;;7399372;19;20140;-77
2023/09/27 02:00:37;;;;;;;3.05;2.33;;;;;14.90;94625.00;;;;7397778;19;20604;-77
2023/09/27 02:03:11;;;;;;;4.60;2.22;;;;;14.70;94634.00;;;;7395459;19;20172;-80
2023/09/27 02:05:52;;;;;;;2.95;1.80;;;;;14.70;94628.00;;;;7399247;19;20136;-78
2023/09/27 02:08:21;;;;;;;2.65;1.83;;;;;14.70;94630.00;;;;7398301;19;20164;-79
2023/09/27 02:10:55;;;;;;;2.85;2.03;;;;;14.70;94635.00;;;;7397576;19;20493;-80
2023/09/27 02:13:23;;;;;;;2.47;2.10;;;;;14.90;94630.00;;;;7397923;19;20151;-74
2023/09/27 02:15:57;;;;;;;7.15;2.13;;;;;14.90;94629.00;;;;7400560;19;20215;-73
2023/09/27 02:18:25;;;;;;;3.50;1.90;;;;;14.80;94628.00;;;;7396673;19;20133;-74
2023/09/27 02:21:01;;;;;;;3.88;2.10;;;;;14.60;94628.00;;;;7398789;19;20514;-75
2023/09/27 02:23:29;;;;;;;2.75;1.63;;;;;14.30;94625.00;;;;7398029;19;20144;-75
2023/09/27 02:26:05;;;;;;;3.08;2.25;;;;;14.40;94632.00;;;;7396410;19;20128;-75
2023/09/27 02:28:40;;;;;;;2.92;1.80;;;;;14.50;94635.00;;;;7397139;19;20149;-74
2023/09/27 02:31:15;;;;;;;3.35;1.73;;;;;14.70;94634.00;;;;7397425;19;20140;-74
2023/09/27 02:33:43;;;;;;;2.53;2.13;;;;;14.40;94634.00;;;;7395912;19;20144;-74
2023/09/27 02:36:11;;;;;;;2.15;1.60;;;;;14.40;94622.00;;;;7395423;19;20128;-73
2023/09/27 02:38:45;;;;;;;2.03;1.75;;;;;14.20;94632.00;;;;7397276;19;20622;-74
2023/09/27 02:41:13;;;;;;;2.40;1.70;;;;;14.20;94632.00;;;;7396869;19;20149;-75
2023/09/27 02:43:47;;;;;;;2.88;1.83;;;;;14.40;94625.00;;;;7396934;19;20139;-74
2023/09/27 02:46:15;;;;;;;1.75;1.50;;;;;14.20;94626.00;;;;7396954;19;20477;-73
2023/09/27 02:48:49;;;;;;;2.08;1.85;;;;;13.90;94621.00;;;;7397452;19;20853;-74
2023/09/27 02:51:17;;;;;;;3.50;1.98;;;;;13.70;94616.00;;;;7396536;19;20148;-74
2023/09/27 02:53:45;;;;;;;3.88;1.40;;;;;13.50;94601.00;;;;7398255;19;20159;-74
2023/09/27 02:56:19;;;;;;;1.83;1.70;;;;;13.20;94604.00;;;;7395493;19;20168;-74
2023/09/27 02:58:47;;;;;;;3.28;2.55;;;;;13.00;94601.00;;;;7395489;19;20137;-75
2023/09/27 03:01:21;;;;;;;2.28;1.88;;;;;13.20;94604.00;;;;7398608;19;20136;-72
2023/09/27 03:03:55;;;;;;;3.15;2.15;;;;;13.20;94613.00;;;;7393144;19;20180;-73
2023/09/27 03:06:30;;;;;;;2.20;1.98;;;;;13.30;94617.00;;;;7396577;19;20143;-73
2023/09/27 03:08:58;;;;;;;3.67;2.40;;;;;13.50;94619.00;;;;7398025;19;20124;-76
2023/09/27 03:11:33;;;;;;;4.90;2.33;;;;;13.60;94615.00;;;;7395504;19;20155;-74
2023/09/27 03:14:08;;;;;;;4.13;2.15;;;;;13.50;94616.00;;;;7397294;19;20120;-77
2023/09/27 03:16:47;;;;;;;2.22;2.03;;;;;13.50;94616.00;;;;7396656;19;20147;-73
2023/09/27 03:19:15;;;;;;;3.72;2.20;;;;;13.50;94615.00;;;;7393295;19;20169;-74
2023/09/27 03:21:49;;;;;;;4.65;2.58;;;;;13.60;94613.00;;;;7397149;19;20119;-74
2023/09/27 03:24:18;;;;;;;3.08;1.98;;;;;13.80;94615.00;;;;7396149;19;20611;-71
2023/09/27 03:26:52;;;;;;;3.00;2.70;;;;;13.90;94616.00;;;;7396507;19;20132;-71
2023/09/27 03:29:20;;;;;;;3.45;2.58;;;;;13.90;94614.00;;;;7396718;19;20620;-72
2023/09/27 03:31:54;;;;;;;4.43;2.78;;;;;14.10;94623.00;;;;7395881;19;20159;-70
2023/09/27 03:34:22;;;;;;;6.80;3.53;;;;;14.20;94623.00;;;;7393468;19;20152;-71
2023/09/27 03:36:57;;;;;;;3.22;2.63;;;;;14.20;94618.00;;;;7396102;19;20591;-70
2023/09/27 03:39:28;;;;;;;3.50;2.58;;;;;14.20;94617.00;;;;7393092;19;20128;-72
2023/09/27 03:42:03;;;;;;;6.28;2.58;;;;;14.50;94625.00;;;;7395433;19;20152;-72
2023/09/27 03:44:38;;;;;;;3.38;2.35;;;;;14.40;94623.00;;;;7395935;19;20618;-72
2023/09/27 03:47:06;;;;;;;4.93;2.42;;;;;14.60;94620.00;;;;7395873;19;20150;-71
2023/09/27 03:49:41;;;;;;;2.88;2.42;;;;;14.60;94627.00;;;;7408163;19;20139;-73
2023/09/27 03:52:09;;;;;;;3.75;2.53;;;;;14.50;94625.00;;;;7409008;19;20133;-70
2023/09/27 03:54:43;;;;;;;2.95;2.40;;;;;14.40;94624.00;;;;7408826;19;20471;-71
2023/09/27 03:57:17;;;;;;;4.68;2.67;;;;;14.40;94625.00;;;;7409712;19;20132;-70
2023/09/27 03:59:52;;;;;;;3.28;2.15;;;;;14.20;94636.00;;;;7410022;19;20152;-71
2023/09/27 04:02:36;;;;;;;3.15;2.45;;;;;14.00;94629.00;;;;7406430;19;20236;-71
2023/09/27 04:05:12;;;;;;;2.80;2.15;;;;;14.10;94630.00;;;;7409443;19;20196;-70
2023/09/27 04:07:41;;;;;;;4.22;2.38;;;;;14.20;94628.00;;;;7409201;19;20488;-71
2023/09/27 04:10:17;;;;;;;4.30;2.90;;;;;14.30;94626.00;;;;7408521;19;20170;-70
2023/09/27 04:12:45;;;;;;;4.90;3.22;;;;;14.30;94622.00;;;;7407920;19;20149;-70
2023/09/27 04:15:19;;;;;;;7.72;2.72;;;;;14.20;94626.00;;;;7409247;19;20147;-75
2023/09/27 04:17:54;;;;;;;2.83;2.50;;;;;14.20;94629.00;;;;7408201;19;20155;-72
2023/09/27 04:20:22;;;;;;;9.65;2.55;;;;;14.20;94622.00;;;;7407917;19;20149;-73
2023/09/27 04:22:57;;;;;;;4.63;2.53;;;;;14.40;94629.00;;;;7408809;19;20160;-70
2023/09/27 04:25:25;;;;;;;7.13;3.05;;;;;14.40;94625.00;;;;7408257;19;20132;-71
2023/09/27 04:27:53;;;;;;;2.75;2.13;;;;;14.40;94630.00;;;;7407895;19;20145;-71
2023/09/27 04:30:28;;;;;;;3.90;2.67;;;;;14.50;94616.00;;;;7409910;19;20144;-71
2023/09/27 04:33:03;;;;;;;4.30;2.47;;;;;14.40;94629.00;;;;7408041;19;20141;-70
2023/09/27 04:35:31;;;;;;;41.53;3.13;;;;;14.40;94634.00;;;;7405548;19;20145;-78
2023/09/27 04:38:05;;;;;;;26.08;4.32;;;;;14.50;94636.00;;;;7408653;19;20144;-78
2023/09/27 04:40:33;;;;;;;2.97;2.20;;;;;14.40;94639.00;;;;7407495;19;20168;-77
2023/09/27 04:43:07;;;;;;;2.63;1.98;;;;;14.20;94636.00;;;;7407681;19;20165;-78
2023/09/27 04:45:41;;;;;;;3.25;2.20;;;;;14.20;94642.00;;;;7408426;19;20136;-78
2023/09/27 04:48:17;;;;;;;2.15;1.95;;;;;14.10;94644.00;;;;7406797;19;20146;-77
2023/09/27 04:50:51;;;;;;;2.30;2.03;;;;;14.20;94651.00;;;;7407868;19;20559;-77
2023/09/27 04:53:26;;;;;;;7.13;2.47;;;;;14.10;94636.00;;;;7409649;19;20212;-76
2023/09/27 04:55:54;;;;;;;2.53;1.90;;;;;14.00;94637.00;;;;7406629;19;20609;-77
2023/09/27 04:58:28;;;;;;;3.42;2.17;;;;;13.80;94633.00;;;;7405842;19;20128;-76
2023/09/27 05:00:56;;;;;;;4.68;1.98;;;;;13.60;94639.00;;;;7396711;19;20201;-78
2023/09/27 05:03:37;;;;;;;1.73;1.63;;;;;13.60;94653.00;;;;7398720;19;20245;-76
2023/09/27 05:06:06;;;;;;;2.75;1.92;;;;;13.60;94653.00;;;;7399874;19;20141;-79
2023/09/27 05:08:40;;;;;;;2.20;1.90;;;;;13.40;94664.00;;;;7400365;19;20178;-76
2023/09/27 05:11:08;;;;;;;2.90;2.10;;;;;13.10;94657.00;;;;7399679;19;20143;-76
2023/09/27 05:13:36;;;;;;;2.40;2.10;;;;;13.10;94661.00;;;;7401681;19;20204;-77
2023/09/27 05:16:13;;;;;;;2.60;1.80;;;;;13.10;94653.00;;;;7401448;19;20479;-78
2023/09/27 05:18:48;;;;;;;2.53;2.13;;;;;13.00;94666.00;;;;7398641;19;20133;-76
2023/09/27 05:21:17;;;;;;;2.42;1.90;;;;;12.90;94655.00;;;;7401624;19;20133;-75
2023/09/27 05:23:51;;;;;;;3.10;2.03;;;;;12.60;94660.00;;;;7400814;19;20232;-78
2023/09/27 05:26:19;;;;;;;2.80;2.10;;;;;12.50;94659.00;;;;7399814;19;20140;-76
2023/09/27 05:28:55;;;;;;;2.85;2.00;;;;;12.50;94658.00;;;;7400319;19;20221;-75
2023/09/27 05:31:24;;;;;;;4.78;2.33;;;;;12.30;94666.00;;;;7400662;19;20125;-75
2023/09/27 05:33:58;;;;;;;4.75;2.17;;;;;12.30;94662.00;;;;7398171;19;20152;-75
2023/09/27 05:36:33;;;;;;;7.13;2.22;;;;;12.20;94671.00;;;;7399462;19;20155;-75
2023/09/27 05:39:02;;;;;;;3.88;2.40;;;;;12.10;94666.00;;;;7399296;19;20137;-75
2023/09/27 05:41:30;;;;;;;2.88;2.20;;;;;12.10;94666.00;;;;7400030;19;20584;-75
2023/09/27 05:44:05;;;;;;;6.32;2.10;;;;;12.20;94668.00;;;;7401019;19;20180;-74
2023/09/27 05:46:40;;;;;;;2.58;2.38;;;;;12.60;94669.00;;;;7398861;19;20144;-71
2023/09/27 05:49:09;;;;;;;4.68;2.38;;;;;12.70;94670.00;;;;7397751;19;20145;-72
2023/09/27 05:51:43;;;;;;;3.97;2.75;;;;;12.90;94668.00;;;;7399301;19;20136;-71
2023/09/27 05:54:11;;;;;;;6.80;2.45;;;;;12.90;94670.00;;;;7395884;19;20628;-71
2023/09/27 05:56:50;;;;;;;2.20;1.90;;;;;12.90;94672.00;;;;7395099;19;20155;-72
2023/09/27 05:59:26;;;;;;;3.50;2.20;;;;;13.10;94664.00;;;;7397505;19;20620;-72
2023/09/27 06:02:00;;;;;;;8.05;2.67;;;;;13.40;94668.00;;;;7397625;19;20171;-71
2023/09/27 06:04:40;;;;;;;3.58;2.40;;;;;13.60;94665.00;;;;7393361;19;20243;-72
2023/09/27 06:07:18;;;;;;;2.53;2.10;;;;;13.80;94663.00;;;;7398071;19;20212;-72
2023/09/27 06:09:52;;;;;;;5.70;2.45;;;;;13.90;94668.00;;;;7397428;19;20153;-70
2023/09/27 06:12:27;;;;;;;3.78;2.70;;;;;13.90;94665.00;;;;7394808;19;20143;-71
2023/09/27 06:15:07;;;;;;;5.18;2.33;;;;;14.20;94668.00;;;;7397486;19;20140;-70
2023/09/27 06:17:43;;;;;;;6.35;2.70;;;;;14.30;94677.00;;;;7396982;19;20674;-72
2023/09/27 06:20:20;;;;;;;3.05;2.50;;;;;14.50;94673.00;;;;7393017;19;20511;-70
2023/09/27 06:22:57;;;;;;;2.80;2.13;;;;;14.50;94676.00;;;;7395095;19;20761;-71
2023/09/27 06:25:34;;;;;;;4.30;2.47;;;;;14.60;94674.00;;;;7397247;19;20145;-71
2023/09/27 06:28:15;;;;;;;3.28;2.10;;;;;14.70;94672.00;;;;7397957;19;20455;-70
2023/09/27 06:30:52;;;;;;;4.68;2.17;;;;;14.70;94674.00;;;;7391809;19;20268;-70
2023/09/27 06:33:26;;;;;;;5.80;2.25;;;;;14.80;94673.00;;;;7394619;19;20124;-70
2023/09/27 06:36:00;;;;;;;2.28;2.08;;;;;14.80;94679.00;;;;7396734;19;20137;-73
2023/09/27 06:38:28;;;;;;;4.75;2.30;;;;;15.00;94676.00;;;;7396189;19;20159;-72
2023/09/27 06:41:02;;;;;;;4.20;2.20;;;;;15.20;94677.00;;;;7396389;19;20181;-71
2023/09/27 06:43:31;;;;;;;4.30;2.20;;;;;15.40;94680.00;;;;7392632;19;20128;-73
2023/09/27 06:46:10;;;;;;;5.82;2.17;;;;;15.70;94681.00;;;;7393063;19;20255;-70
2023/09/27 06:48:39;;;;;;;3.10;2.17;;;;;15.80;94683.00;;;;7389191;19;20565;-72
2023/09/27 06:51:13;;;;;;;2.30;2.10;;;;;16.10;94677.00;;;;7393798;19;20145;-73
2023/09/27 06:53:49;;;;;;;2.42;2.05;;;;;16.40;94682.00;;;;7395342;19;20143;-71
2023/09/27 06:56:23;;;;;;;4.97;2.42;;;;;16.50;94676.00;;;;7395563;19;20145;-70
2023/09/27 06:58:51;;;;;;;3.13;2.45;;;;;16.80;94676.00;;;;7395555;19;20204;-72
2023/09/27 07:01:21;;;;;;;6.60;1.95;;;;;17.00;94665.00;;;;7396554;19;20141;-71
2023/09/27 07:03:56;;;;;;;3.13;2.30;;;;;17.20;94673.00;;;;7393219;19;20207;-71
2023/09/27 07:06:30;;;;;;;2.35;2.00;;;;;17.40;94672.00;;;;7396431;19;20256;-72
2023/09/27 07:08:58;;;;;;;3.47;2.22;;;;;17.50;94670.00;;;;7395720;19;20456;-74
2023/09/27 07:11:34;;;;;;;3.00;2.05;;;;;17.70;94670.00;;;;7395630;19;20140;-71
2023/09/27 07:14:09;;;;;;;2.47;2.15;;;;;18.00;94669.00;;;;7394736;19;20155;-71
2023/09/27 07:16:46;;;;;;;4.50;2.05;;;;;18.10;94670.00;;;;7395096;19;20152;-72
2023/09/27 07:19:31;;;;;;;2.70;2.10;;;;;18.20;94665.00;;;;7393287;19;20143;-70
2023/09/27 07:22:08;;;;;;;4.03;2.33;;;;;18.30;94667.00;;;;7393945;19;20160;-70
2023/09/27 07:24:42;;;;;;;3.00;2.10;;;;;18.60;94658.00;;;;7395559;19;20495;-71
2023/09/27 07:27:17;;;;;;;2.00;1.85;;;;;18.80;94668.00;;;;7395558;19;20490;-71
2023/09/27 07:29:52;;;;;;;2.70;1.80;;;;;19.00;94666.00;;;;7392220;19;21014;-71
2023/09/27 07:32:20;;;;;;;2.83;1.98;;;;;19.10;94675.00;;;;7395719;19;20716;-71
2023/09/27 07:34:57;;;;;;;2.15;1.95;;;;;19.20;94662.00;;;;7394474;19;20140;-70
2023/09/27 07:37:26;;;;;;;2.70;2.03;;;;;19.50;94667.00;;;;7394534;19;20133;-75
2023/09/27 07:40:09;;;;;;;2.53;1.80;;;;;19.60;94671.00;;;;7393009;19;20141;-70
2023/09/27 07:42:39;;;;;;;2.22;1.90;;;;;19.60;94668.00;;;;7393944;19;20165;-72
2023/09/27 07:45:21;;;;;;;2.00;1.60;;;;;19.70;94660.00;;;;7394100;19;20144;-71
2023/09/27 07:47:51;;;;;;;2.63;1.85;;;;;19.80;94657.00;;;;7393793;19;20153;-71
2023/09/27 07:50:33;;;;;;;6.13;2.00;;;;;19.60;94671.00;;;;7392675;19;20636;-73
2023/09/27 07:53:08;;;;;;;2.33;1.90;;;;;19.80;94661.00;;;;7393888;19;20230;-71
2023/09/27 07:55:50;;;;;;;2.83;1.80;;;;;20.10;94665.00;;;;7394267;19;20175;-70
2023/09/27 07:58:26;;;;;;;4.47;1.70;;;;;20.20;94659.00;;;;7394560;19;20600;-72
2023/09/27 08:01:02;;;;;;;6.40;1.75;;;;;20.40;94666.00;;;;7390756;19;20159;-72
2023/09/27 08:03:41;;;;;;;4.47;1.70;;;;;20.20;94664.00;;;;7389233;19;20184;-76
2023/09/27 08:06:17;;;;;;;3.58;2.17;;;;;20.40;94667.00;;;;7393621;19;20141;-74
2023/09/27 08:08:53;;;;;;;3.65;2.08;;;;;20.40;94657.00;;;;7394514;19;20160;-73
2023/09/27 08:11:21;;;;;;;2.17;1.90;;;;;20.40;94664.00;;;;7393040;19;20141;-74
2023/09/27 08:13:49;;;;;;;2.88;1.98;;;;;20.50;94664.00;;;;7393053;19;20145;-73
2023/09/27 08:16:26;;;;;;;2.17;1.98;;;;;20.60;94660.00;;;;7395124;19;20631;-74
2023/09/27 08:18:55;;;;;;;4.35;1.90;;;;;20.80;94674.00;;;;7392792;19;20133;-74
2023/09/27 08:21:29;;;;;;;5.28;1.85;;;;;20.60;94664.00;;;;7390302;19;20479;-75
2023/09/27 08:23:57;;;;;;;2.58;2.28;;;;;20.60;94660.00;;;;7394159;19;20167;-72
2023/09/27 08:26:34;;;;;;;5.25;1.80;;;;;20.60;94669.00;;;;7393800;19;20460;-73
2023/09/27 08:29:02;;;;;;;4.53;1.95;;;;;20.70;94667.00;;;;7394833;19;20140;-73
2023/09/27 08:31:32;;;;;;;2.38;1.70;;;;;20.60;94669.00;;;;7390878;19;20185;-76
2023/09/27 08:34:06;;;;;;;2.20;1.90;;;;;20.80;94660.00;;;;7389728;19;20144;-72
2023/09/27 08:36:41;;;;;;;2.70;2.00;;;;;20.80;94656.00;;;;7398243;19;20159;-73
2023/09/27 08:39:19;;;;;;;2.72;1.80;;;;;21.40;94652.00;;;;7397529;19;20706;-73
2023/09/27 08:41:47;;;;;;;3.38;2.00;;;;;21.70;94651.00;;;;7396728;19;20175;-73
2023/09/27 08:44:23;;;;;;;2.80;1.98;;;;;21.50;94656.00;;;;7394820;19;20601;-74
2023/09/27 08:46:54;;;;;;;2.47;1.70;;;;;21.50;94661.00;;;;7399817;19;20493;-74
2023/09/27 08:49:28;;;;;;;1.80;1.60;;;;;21.50;94653.00;;;;7402045;19;20137;-75
2023/09/27 08:51:57;;;;;;;2.60;1.90;;;;;21.50;94646.00;;;;7399672;19;20147;-73
2023/09/27 08:54:32;;;;;;;3.33;1.70;;;;;21.20;94645.00;;;;7400997;19;20128;-74
2023/09/27 08:57:06;;;;;;;2.38;1.98;;;;;21.40;94636.00;;;;7401150;19;20276;-73
2023/09/27 08:59:44;;;;;;;2.97;2.00;;;;;21.40;94624.00;;;;7396437;19;20144;-72
2023/09/27 09:02:13;;;;;;;4.97;2.35;;;;;21.20;94626.00;;;;7399209;19;20169;-75
2023/09/27 09:04:55;;;;;;;3.28;1.90;;;;;21.50;94623.00;;;;7396519;19;20634;-72
2023/09/27 09:07:24;;;;;;;3.33;2.10;;;;;21.60;94625.00;;;;7398812;19;20144;-74
2023/09/27 09:09:58;;;;;;;3.50;2.10;;;;;21.60;94622.00;;;;7399620;19;20132;-73
2023/09/27 09:12:33;;;;;;;7.22;1.90;;;;;21.60;94612.00;;;;7400407;19;20489;-72
2023/09/27 09:15:05;;;;;;;3.30;1.90;;;;;21.80;94615.00;;;;7396959;19;20139;-73
2023/09/27 09:17:44;;;;;;;2.47;2.00;;;;;22.00;94627.00;;;;7399762;19;20132;-75
2023/09/27 09:22:54;;;;;;;5.28;2.30;;;;;21.80;94625.00;;;;7401167;19;20200;-74
2023/09/27 09:25:23;;;;;;;3.88;2.40;;;;;22.10;94627.00;;;;7398360;19;20761;-74
2023/09/27 09:28:07;;;;;;;3.03;1.95;;;;;22.20;94622.00;;;;7398842;19;20136;-74
2023/09/27 09:30:44;;;;;;;3.55;2.10;;;;;22.30;94620.00;;;;7399949;19;20626;-75
2023/09/27 09:33:22;;;;;;;3.72;1.90;;;;;22.50;94616.00;;;;7397529;19;20182;-76
2023/09/27 09:35:57;;;;;;;2.65;2.10;;;;;22.80;94614.00;;;;7397668;19;20147;-75
2023/09/27 09:38:33;;;;;;;2.40;2.10;;;;;22.60;94611.00;;;;7399337;19;20156;-74
2023/09/27 09:41:02;;;;;;;2.55;1.73;;;;;22.50;94614.00;;;;7398576;19;20137;-74
2023/09/27 09:43:38;;;;;;;3.28;2.20;;;;;22.90;94616.00;;;;7399154;19;20124;-74
2023/09/27 09:46:08;;;;;;;7.55;2.20;;;;;23.30;94608.00;;;;7397136;19;20141;-75
2023/09/27 09:48:44;;;;;;;4.60;2.30;;;;;23.20;94607.00;;;;7397477;19;20741;-76
2023/09/27 09:51:14;;;;;;;4.05;2.15;;;;;22.90;94612.00;;;;7400328;19;20137;-75
2023/09/27 09:53:53;;;;;;;3.38;2.33;;;;;23.10;94611.00;;;;7395282;19;20256;-76
2023/09/27 09:56:28;;;;;;;4.43;2.17;;;;;23.30;94615.00;;;;7396442;19;20173;-76
2023/09/27 09:59:11;;;;;;;3.40;2.13;;;;;23.40;94614.00;;;;7395551;19;20255;-75
2023/09/27 10:01:46;;;;;;;3.80;2.40;;;;;23.30;94607.00;;;;7395057;19;20160;-74
2023/09/27 10:04:20;;;;;;;2.72;2.30;;;;;23.10;94610.00;;;;7393528;19;20176;-79
2023/09/27 10:06:57;;;;;;;2.60;2.20;;;;;23.10;94612.00;;;;7397572;19;20711;-75
2023/09/27 10:09:28;;;;;;;3.00;2.30;;;;;23.30;94607.00;;;;7398175;19;20141;-78
2023/09/27 10:12:11;;;;;;;2.85;2.38;;;;;23.50;94606.00;;;;7395795;19;20626;-75
2023/09/27 10:14:41;;;;;;;4.20;2.20;;;;;23.60;94605.00;;;;7392362;19;20183;-75
2023/09/27 10:17:24;;;;;;;2.80;2.22;;;;;24.00;94600.00;;;;7398193;19;20164;-76
2023/09/27 10:20:12;;;;;;;4.85;2.20;;;;;23.90;94593.00;;;;7395236;19;20148;-75
2023/09/27 10:22:49;;;;;;;4.30;2.20;;;;;24.00;94590.00;;;;7398876;19;20146;-74
2023/09/27 10:25:23;;;;;;;3.13;2.30;;;;;23.60;94592.00;;;;7396432;19;20227;-75
2023/09/27 10:28:01;;;;;;;2.45;1.92;;;;;23.50;94592.00;;;;7396245;19;20152;-74
2023/09/27 10:30:41;;;;;;;2.53;2.22;;;;;23.60;94586.00;;;;7397681;19;20157;-73
2023/09/27 10:33:15;;;;;;;3.20;2.20;;;;;24.10;94588.00;;;;7394983;19;20257;-74
2023/09/27 10:36:03;;;;;;;3.58;2.10;;;;;24.10;94580.00;;;;7396343;19;20963;-74
2023/09/27 10:38:43;;;;;;;3.67;1.77;;;;;24.30;94580.00;;;;7397466;19;20117;-76
2023/09/27 10:41:42;;;;;;;3.53;2.25;;;;;24.10;94580.00;;;;7394665;19;20240;-76
2023/09/27 10:44:34;;;;;;;2.38;2.00;;;;;24.30;94569.00;;;;7396542;19;20497;-73
2023/09/27 10:47:08;;;;;;;3.10;1.88;;;;;24.90;94570.00;;;;7395631;19;20141;-74
2023/09/27 10:49:49;;;;;;;2.90;2.30;;;;;24.70;94567.00;;;;7394175;19;20133;-76
2023/09/27 10:52:18;;;;;;;2.92;2.22;;;;;24.70;94573.00;;;;7397326;19;20144;-75
2023/09/27 10:54:52;;;;;;;2.88;2.30;;;;;24.70;94570.00;;;;7396436;19;20159;-74
2023/09/27 10:57:21;;;;;;;2.30;2.10;;;;;25.00;94571.00;;;;7395459;19;20125;-74
2023/09/27 10:59:56;;;;;;;4.03;2.58;;;;;25.10;94573.00;;;;7396446;19;20587;-75
2023/09/27 11:02:31;;;;;;;4.45;1.77;;;;;25.40;94568.00;;;;7395428;19;20527;-74
2023/09/27 11:05:12;;;;;;;3.22;2.10;;;;;25.50;94560.00;;;;7393588;19;20233;-75
2023/09/27 11:07:50;;;;;;;2.60;2.10;;;;;25.20;94557.00;;;;7397509;19;20592;-76
2023/09/27 11:10:31;;;;;;;4.45;2.58;;;;;24.80;94559.00;;;;7396192;19;20140;-74
2023/09/27 11:13:09;;;;;;;2.85;2.05;;;;;25.50;94556.00;;;;7396399;19;20128;-74
2023/09/27 11:15:44;;;;;;;3.25;2.08;;;;;26.30;94552.00;;;;7394480;19;20148;-73
2023/09/27 11:18:19;;;;;;;3.00;2.40;;;;;26.10;94545.00;;;;7395495;19;20117;-76
2023/09/27 11:20:53;;;;;;;2.95;2.25;;;;;26.10;94543.00;;;;7393564;19;20208;-73
2023/09/27 11:23:24;;;;;;;5.45;2.40;;;;;26.20;94539.00;;;;7396014;19;20450;-74
2023/09/27 11:25:52;;;;;;;4.20;2.08;;;;;26.60;94539.00;;;;7395363;19;20505;-75
2023/09/27 11:28:26;;;;;;;2.80;1.92;;;;;26.60;94534.00;;;;7394821;19;20152;-74
2023/09/27 11:30:59;;;;;;;2.50;2.15;;;;;26.90;94520.00;;;;7393968;19;20136;-74
2023/09/27 11:33:34;;;;;;;2.83;2.20;;;;;27.00;94517.00;;;;7395493;19;20297;-75
2023/09/27 11:36:06;;;;;;;2.10;1.85;;;;;26.50;94517.00;;;;7396327;19;20585;-71
2023/09/27 11:38:51;;;;;;;2.80;2.30;;;;;27.30;94514.00;;;;7392507;19;20237;-71
2023/09/27 11:41:19;;;;;;;4.65;2.30;;;;;28.00;94508.00;;;;7393614;19;20133;-71
2023/09/27 11:43:55;;;;;;;3.47;2.03;;;;;28.60;94503.00;;;;7394420;19;20131;-71
2023/09/27 11:46:27;;;;;;;2.10;1.90;;;;;28.20;94512.00;;;;7392573;19;20600;-72
2023/09/27 11:49:08;;;;;;;1.88;1.60;;;;;28.40;94492.00;;;;7392095;19;20125;-72
2023/09/27 11:51:43;;;;;;;3.40;2.10;;;;;28.30;94497.00;;;;7395955;19;20155;-71
2023/09/27 11:54:17;;;;;;;3.15;2.20;;;;;29.30;94485.00;;;;7391787;19;20148;-71
2023/09/27 11:56:45;;;;;;;2.10;1.65;;;;;28.90;94484.00;;;;7393649;19;20676;-72
2023/09/27 11:59:19;;;;;;;3.58;1.70;;;;;28.40;94485.00;;;;7395874;19;20136;-73
2023/09/27 12:01:57;;;;;;;2.28;2.00;;;;;28.20;94482.00;;;;7394352;19;20596;-70
2023/09/27 12:04:50;;;;;;;2.22;1.67;;;;;27.80;94480.00;;;;7390709;19;20624;-72
2023/09/27 12:07:24;;;;;;;1.85;1.67;;;;;27.40;94486.00;;;;7393545;19;20509;-76
2023/09/27 12:09:55;;;;;;;1.85;1.70;;;;;28.10;94483.00;;;;7399069;19;20144;-74
2023/09/27 12:12:29;;;;;;;2.80;1.88;;;;;28.00;94486.00;;;;7399567;19;20160;-71
2023/09/27 12:14:57;;;;;;;2.08;1.80;;;;;28.20;94476.00;;;;7400368;19;20148;-71
2023/09/27 12:17:32;;;;;;;1.75;1.45;;;;;28.20;94468.00;;;;7401273;19;20140;-74
2023/09/27 12:20:03;;;;;;;2.10;1.90;;;;;28.40;94473.00;;;;7376494;19;20202;-73
2023/09/27 12:22:58;;;;;;;49.35;4.40;;;;;28.40;94469.00;;;;7284186;19;2004429;-73
2023/09/27 12:25:26;;;;;;;1.42;1.33;;;;;29.00;94458.00;;;;7385467;19;20152;-71
2023/09/27 12:28:03;;;;;;;2.28;1.80;;;;;29.50;94460.00;;;;7389167;19;20619;-70
2023/09/27 12:30:31;;;;;;;2.15;1.58;;;;;29.70;94460.00;;;;7385039;19;20156;-72
2023/09/27 12:33:07;;;;;;;1.75;1.48;;;;;29.70;94456.00;;;;7386734;19;20161;-74
2023/09/27 12:35:49;;;;;;;2.97;1.70;;;;;29.50;94457.00;;;;7388872;19;20125;-73
2023/09/27 12:38:26;;;;;;;4.63;1.60;;;;;28.60;94458.00;;;;7384312;19;20516;-73
2023/09/27 12:41:01;;;;;;;1.60;1.50;;;;;27.90;94450.00;;;;7384297;19;20621;-73
2023/09/27 12:43:36;;;;;;;1.90;1.60;;;;;28.80;94447.00;;;;7389939;19;21184;-72
2023/09/27 12:46:11;;;;;;;1.63;1.52;;;;;29.00;94438.00;;;;7385488;19;20143;-76
2023/09/27 12:48:45;;;;;;;1.70;1.58;;;;;29.40;94424.00;;;;7382972;19;20144;-73
2023/09/27 12:51:13;;;;;;;3.88;1.80;;;;;29.80;94426.00;;;;7384535;19;20553;-72
2023/09/27 12:54:00;;;;;;;2.38;1.60;;;;;29.90;94444.00;;;;7384595;19;20215;-74